Time;durP1;ratioP1;P1;durP2;ratioP2;P2;SDS_P1;SDS_P2;PMS_P1;PMS_P2;Temp;Humidity;BMP_temperature;BMP_pressure;BME280_temperature;BME280_humidity;BME280_pressure;Samples;Min_cycle;Max_cycle;Signal;HPM_P1;HPM_P2
2023/05/14 00:01:41;;;;;;;;;;;;;;;;;;4934206;29;1927;-56
2023/05/14 00:04:11;;;;;;;;;;;;;;;;;;4934466;29;1897;-58
2023/05/14 00:06:38;;;;;;;;;;;;;;;;;;4934263;29;2073;-59
2023/05/14 00:09:05;;;;;;;;;;;;;;;;;;4934216;29;2079;-57
2023/05/14 00:11:32;;;;;;;;;;;;;;;;;;4933621;29;1899;-54
2023/05/14 00:14:00;;;;;;;;;;;;;;;;;;4934211;29;2146;-60
2023/05/14 00:16:27;;;;;;;;;;;;;;;;;;4933895;29;1812;-59
2023/05/14 00:18:54;;;;;;;;;;;;;;;;;;4933720;29;2471;-57
2023/05/14 00:21:21;;;;;;;;;;;;;;;;;;4933423;29;2000;-55
2023/05/14 00:23:48;;;;;;;;;;;;;;;;;;4934198;29;1787;-57
2023/05/14 00:26:15;;;;;;;;;;;;;;;;;;4933733;29;2029;-64
2023/05/14 00:28:44;;;;;;;;;;;;;;;;;;4933325;29;2073;-57
2023/05/14 00:31:11;;;;;;;;;;;;;;;;;;4934233;29;2010;-56
2023/05/14 00:33:38;;;;;;;;;;;;;;;;;;4934062;29;1841;-58
2023/05/14 00:36:06;;;;;;;;;;;;;;;;;;4933759;29;1840;-55
2023/05/14 00:38:33;;;;;;;;;;;;;;;;;;4932548;29;1806;-55
2023/05/14 00:41:00;;;;;;;;;;;;;;;;;;4932230;29;1903;-58
2023/05/14 00:43:27;;;;;;;;;;;;;;;;;;4933827;29;1871;-58
2023/05/14 00:45:54;;;;;;;;;;;;;;;;;;4932651;29;2353;-51
2023/05/14 00:48:24;;;;;;;;;;;;;;;;;;4933849;29;2059;-56
2023/05/14 00:50:51;;;;;;;;;;;;;;;;;;4933778;29;2019;-62
2023/05/14 00:53:19;;;;;;;;;;;;;;;;;;4933544;29;1834;-57
2023/05/14 00:55:47;;;;;;;;;;;;;;;;;;4933583;29;2023;-57
2023/05/14 00:58:16;;;;;;;;;;;;;;;;;;4932170;29;1912;-56
2023/05/14 01:00:44;;;;;;;;;;;;;;;;;;4932417;29;1999;-56
2023/05/14 01:03:11;;;;;;;;;;;;;;;;;;4932601;29;1974;-60
2023/05/14 01:05:42;;;;;;;;;;;;;;;;;;4933395;29;1965;-59
2023/05/14 01:08:12;;;;;;;;;;;;;;;;;;4932234;29;2165;-62
2023/05/14 01:10:50;;;;;;;;;;;;;;;;;;4932419;29;2083;-57
2023/05/14 01:13:30;;;;;;;;;;;;;;;;;;4931922;29;2223;-55
2023/05/14 01:15:59;;;;;;;;;;;;;;;;;;4932147;29;2156;-55
2023/05/14 01:18:27;;;;;;;;;;;;;;;;;;4933243;29;2098;-60
2023/05/14 01:20:54;;;;;;;;;;;;;;;;;;4932225;29;1920;-60
2023/05/14 01:23:21;;;;;;;;;;;;;;;;;;4933339;29;2009;-58
2023/05/14 01:25:48;;;;;;;;;;;;;;;;;;4933561;29;1960;-60
2023/05/14 01:28:17;;;;;;;;;;;;;;;;;;4932342;29;2128;-62
2023/05/14 01:30:55;;;;;;;;;;;;;;;;;;4933533;29;1932;-59
2023/05/14 01:33:24;;;;;;;;;;;;;;;;;;4932730;29;1971;-61
2023/05/14 01:35:52;;;;;;;;;;;;;;;;;;4936782;29;1409;-59
2023/05/14 01:38:20;;;;;;;;;;;;;;;;;;4936737;29;1710;-58
2023/05/14 01:40:47;;;;;;;;;;;;;;;;;;4936642;29;1967;-55
2023/05/14 01:43:15;;;;;;;;;;;;;;;;;;4935559;29;1850;-62
2023/05/14 01:45:43;;;;;;;;;;;;;;;;;;4936624;29;1725;-59
2023/05/14 01:48:10;;;;;;;;;;;;;;;;;;4936525;29;1834;-61
2023/05/14 01:50:37;;;;;;;;;;;;;;;;;;4935314;29;2231;-57
2023/05/14 01:53:05;;;;;;;;;;;;;;;;;;4936159;29;2047;-61
2023/05/14 01:55:32;;;;;;;;;;;;;;;;;;4936473;29;1742;-60
2023/05/14 01:57:59;;;;;;;;;;;;;;;;;;4934714;29;1969;-59
2023/05/14 02:00:26;;;;;;;;;;;;;;;;;;4935057;29;1971;-56
2023/05/14 02:02:54;;;;;;;;;;;;;;;;;;4936343;29;1471;-58
2023/05/14 02:05:22;;;;;;;;;;;;;;;;;;4936110;29;2007;-58
2023/05/14 02:07:50;;;;;;;;;;;;;;;;;;4934988;29;1965;-55
2023/05/14 02:10:18;;;;;;;;;;;;;;;;;;4936351;29;2286;-60
2023/05/14 02:12:48;;;;;;;;;;;;;;;;;;4936084;29;1856;-60
2023/05/14 02:15:15;;;;;;;;;;;;;;;;;;4936097;29;1664;-61
2023/05/14 02:17:42;;;;;;;;;;;;;;;;;;4935777;29;1813;-60
2023/05/14 02:20:10;;;;;;;;;;;;;;;;;;4935899;29;1985;-61
2023/05/14 02:22:37;;;;;;;;;;;;;;;;;;4934554;29;2155;-58
2023/05/14 02:25:05;;;;;;;;;;;;;;;;;;4935810;29;1987;-59
2023/05/14 02:27:32;;;;;;;;;;;;;;;;;;4935886;29;2166;-56
2023/05/14 02:29:59;;;;;;;;;;;;;;;;;;4935760;29;1961;-60
2023/05/14 02:32:27;;;;;;;;;;;;;;;;;;4935693;29;1977;-59
2023/05/14 02:34:54;;;;;;;;;;;;;;;;;;4935622;29;2034;-60
2023/05/14 02:37:22;;;;;;;;;;;;;;;;;;4935690;29;1853;-57
2023/05/14 02:39:51;;;;;;;;;;;;;;;;;;4935697;29;1966;-62
2023/05/14 02:42:18;;;;;;;;;;;;;;;;;;4935881;29;1914;-59
2023/05/14 02:44:46;;;;;;;;;;;;;;;;;;4933819;29;1814;-62
2023/05/14 02:47:13;;;;;;;;;;;;;;;;;;4933994;29;1996;-59
2023/05/14 02:49:40;;;;;;;;;;;;;;;;;;4935574;29;2025;-55
2023/05/14 02:52:08;;;;;;;;;;;;;;;;;;4933962;29;2372;-57
2023/05/14 02:54:35;;;;;;;;;;;;;;;;;;4933966;29;2094;-58
2023/05/14 02:57:02;;;;;;;;;;;;;;;;;;4935344;29;1984;-56
2023/05/14 02:59:30;;;;;;;;;;;;;;;;;;4933620;29;1960;-58
2023/05/14 03:01:57;;;;;;;;;;;;;;;;;;4933861;29;2117;-57
2023/05/14 03:04:24;;;;;;;;;;;;;;;;;;4935219;29;1872;-56
2023/05/14 03:06:52;;;;;;;;;;;;;;;;;;4935107;29;2391;-59
2023/05/14 03:09:19;;;;;;;;;;;;;;;;;;4935212;29;1843;-62
2023/05/14 03:11:46;;;;;;;;;;;;;;;;;;4933635;29;2238;-58
2023/05/14 03:14:14;;;;;;;;;;;;;;;;;;4935027;29;1972;-58
2023/05/14 03:16:41;;;;;;;;;;;;;;;;;;4935062;29;2046;-61
2023/05/14 03:19:08;;;;;;;;;;;;;;;;;;4934666;29;1773;-60
2023/05/14 03:21:36;;;;;;;;;;;;;;;;;;4934915;29;1916;-61
2023/05/14 03:24:03;;;;;;;;;;;;;;;;;;4934745;29;1988;-57
2023/05/14 03:26:30;;;;;;;;;;;;;;;;;;4922995;29;2003;-57
2023/05/14 03:28:57;;;;;;;;;;;;;;;;;;4915621;29;2023;-56
2023/05/14 03:31:25;;;;;;;;;;;;;;;;;;4915593;29;1889;-53
2023/05/14 03:33:55;;;;;;;;;;;;;;;;;;4915516;29;1760;-55
2023/05/14 03:36:22;;;;;;;;;;;;;;;;;;4915980;29;2050;-61
2023/05/14 03:38:49;;;;;;;;;;;;;;;;;;4915998;29;1680;-57
2023/05/14 03:41:18;;;;;;;;;;;;;;;;;;4914298;29;2066;-55
2023/05/14 03:43:46;;;;;;;;;;;;;;;;;;4915314;29;1994;-58
2023/05/14 03:46:13;;;;;;;;;;;;;;;;;;4915263;29;1815;-57
2023/05/14 03:48:41;;;;;;;;;;;;;;;;;;4915409;29;1987;-57
2023/05/14 03:51:08;;;;;;;;;;;;;;;;;;4914014;29;2141;-60
2023/05/14 03:53:35;;;;;;;;;;;;;;;;;;4915455;29;2009;-60
2023/05/14 03:56:03;;;;;;;;;;;;;;;;;;4913245;29;2109;-53
2023/05/14 03:58:30;;;;;;;;;;;;;;;;;;4928923;29;2004;-61
2023/05/14 04:00:59;;;;;;;;;;;;;;;;;;4932669;29;1920;-58
2023/05/14 04:03:26;;;;;;;;;;;;;;;;;;4932861;29;1991;-58
2023/05/14 04:05:53;;;;;;;;;;;;;;;;;;4934255;29;2085;-59
2023/05/14 04:08:20;;;;;;;;;;;;;;;;;;4932721;29;2119;-55
2023/05/14 04:10:48;;;;;;;;;;;;;;;;;;4932728;29;1819;-58
2023/05/14 04:13:15;;;;;;;;;;;;;;;;;;4933577;29;1843;-56
2023/05/14 04:15:43;;;;;;;;;;;;;;;;;;4932775;29;2112;-61
2023/05/14 04:18:10;;;;;;;;;;;;;;;;;;4934034;29;1869;-63
2023/05/14 04:20:37;;;;;;;;;;;;;;;;;;4933854;29;2009;-64
2023/05/14 04:23:04;;;;;;;;;;;;;;;;;;4933825;29;2046;-57
2023/05/14 04:25:31;;;;;;;;;;;;;;;;;;4933688;29;2062;-60
2023/05/14 04:27:58;;;;;;;;;;;;;;;;;;4933889;29;1838;-62
2023/05/14 04:30:26;;;;;;;;;;;;;;;;;;4933904;29;2263;-57
2023/05/14 04:32:53;;;;;;;;;;;;;;;;;;4933910;29;2026;-57
2023/05/14 04:35:20;;;;;;;;;;;;;;;;;;4933773;29;2191;-52
2023/05/14 04:37:50;;;;;;;;;;;;;;;;;;4933763;29;1865;-56
2023/05/14 04:40:18;;;;;;;;;;;;;;;;;;4933834;29;1912;-58
2023/05/14 04:42:45;;;;;;;;;;;;;;;;;;4933568;29;2007;-56
2023/05/14 04:45:12;;;;;;;;;;;;;;;;;;4933620;29;2113;-58
2023/05/14 04:47:40;;;;;;;;;;;;;;;;;;4933859;29;2014;-54
2023/05/14 04:50:08;;;;;;;;;;;;;;;;;;4933730;29;1807;-55
2023/05/14 04:52:35;;;;;;;;;;;;;;;;;;4933762;29;2042;-60
2023/05/14 04:55:03;;;;;;;;;;;;;;;;;;4933449;29;2074;-61
2023/05/14 04:57:30;;;;;;;;;;;;;;;;;;4933608;29;2140;-60
2023/05/14 04:59:57;;;;;;;;;;;;;;;;;;4932778;29;2233;-63
2023/05/14 05:02:24;;;;;;;;;;;;;;;;;;4933321;29;2167;-62
2023/05/14 05:04:52;;;;;;;;;;;;;;;;;;4933620;29;1993;-62
2023/05/14 05:07:19;;;;;;;;;;;;;;;;;;4934274;29;2125;-63
2023/05/14 05:09:46;;;;;;;;;;;;;;;;;;4936961;29;1982;-62
2023/05/14 05:12:13;;;;;;;;;;;;;;;;;;4937247;29;2145;-59
2023/05/14 05:14:41;;;;;;;;;;;;;;;;;;4937257;29;1858;-61
2023/05/14 05:17:08;;;;;;;;;;;;;;;;;;4937155;29;1919;-60
2023/05/14 05:19:35;;;;;;;;;;;;;;;;;;4936879;29;2403;-60
2023/05/14 05:22:09;;;;;;;;;;;;;;;;;;4936844;29;1978;-59
2023/05/14 05:24:36;;;;;;;;;;;;;;;;;;4937011;29;2058;-59
2023/05/14 05:27:04;;;;;;;;;;;;;;;;;;4936733;29;1908;-55
2023/05/14 05:29:32;;;;;;;;;;;;;;;;;;4937113;29;1882;-50
2023/05/14 05:31:59;;;;;;;;;;;;;;;;;;4937065;29;2070;-53
2023/05/14 05:34:26;;;;;;;;;;;;;;;;;;4936738;29;2421;-61
2023/05/14 05:36:53;;;;;;;;;;;;;;;;;;4936688;29;1959;-58
2023/05/14 05:39:20;;;;;;;;;;;;;;;;;;4936772;29;2015;-62
2023/05/14 05:41:48;;;;;;;;;;;;;;;;;;4936687;29;2142;-62
2023/05/14 05:44:15;;;;;;;;;;;;;;;;;;4936603;29;1513;-61
2023/05/14 05:46:42;;;;;;;;;;;;;;;;;;4935737;29;1907;-56
2023/05/14 05:49:09;;;;;;;;;;;;;;;;;;4936592;29;1448;-57
2023/05/14 05:51:36;;;;;;;;;;;;;;;;;;4935075;29;2038;-55
2023/05/14 05:54:03;;;;;;;;;;;;;;;;;;4936534;29;1928;-58
2023/05/14 05:56:31;;;;;;;;;;;;;;;;;;4936399;29;1855;-60
2023/05/14 05:58:58;;;;;;;;;;;;;;;;;;4936325;29;2247;-62
2023/05/14 06:01:25;;;;;;;;;;;;;;;;;;4936363;29;1981;-55
2023/05/14 06:03:52;;;;;;;;;;;;;;;;;;4935822;29;2172;-55
2023/05/14 06:06:20;;;;;;;;;;;;;;;;;;4936358;29;2054;-59
2023/05/14 06:08:47;;;;;;;;;;;;;;;;;;4936019;29;1412;-63
2023/05/14 06:11:15;;;;;;;;;;;;;;;;;;4935962;29;1958;-63
2023/05/14 06:13:42;;;;;;;;;;;;;;;;;;4936050;29;1891;-61
2023/05/14 06:16:10;;;;;;;;;;;;;;;;;;4935836;29;1956;-52
2023/05/14 06:18:37;;;;;;;;;;;;;;;;;;4935244;29;1937;-54
2023/05/14 06:21:04;;;;;;;;;;;;;;;;;;4935775;29;1977;-53
2023/05/14 06:23:31;;;;;;;;;;;;;;;;;;4935903;29;2037;-53
2023/05/14 06:25:59;;;;;;;;;;;;;;;;;;4935865;29;2159;-59
2023/05/14 06:28:26;;;;;;;;;;;;;;;;;;4935706;29;1986;-63
2023/05/14 06:30:54;;;;;;;;;;;;;;;;;;4935782;29;2045;-52
2023/05/14 06:33:28;;;;;;;;;;;;;;;;;;4935589;29;1472;-56
2023/05/14 06:36:03;;;;;;;;;;;;;;;;;;4935739;29;2265;-54
2023/05/14 06:38:30;;;;;;;;;;;;;;;;;;4935586;29;1996;-56
2023/05/14 06:40:58;;;;;;;;;;;;;;;;;;4935446;29;2081;-63
2023/05/14 06:43:25;;;;;;;;;;;;;;;;;;4935309;29;2054;-55
2023/05/14 06:45:52;;;;;;;;;;;;;;;;;;4935487;29;2097;-52
2023/05/14 06:48:20;;;;;;;;;;;;;;;;;;4935655;29;1983;-58
2023/05/14 06:50:47;;;;;;;;;;;;;;;;;;4935582;29;2012;-59
2023/05/14 06:53:15;;;;;;;;;;;;;;;;;;4935278;29;2694;-57
2023/05/14 06:55:42;;;;;;;;;;;;;;;;;;4935467;29;1896;-58
2023/05/14 06:58:09;;;;;;;;;;;;;;;;;;4935043;29;1901;-61
2023/05/14 07:00:36;;;;;;;;;;;;;;;;;;4935323;29;2176;-56
2023/05/14 07:03:04;;;;;;;;;;;;;;;;;;4934658;29;2114;-55
2023/05/14 07:05:31;;;;;;;;;;;;;;;;;;4935111;29;2076;-56
2023/05/14 07:08:01;;;;;;;;;;;;;;;;;;4935155;29;1873;-58
2023/05/14 07:10:29;;;;;;;;;;;;;;;;;;4934938;29;2118;-59
2023/05/14 07:12:57;;;;;;;;;;;;;;;;;;4934941;29;1801;-55
2023/05/14 07:15:24;;;;;;;;;;;;;;;;;;4934838;29;2144;-57
2023/05/14 07:17:51;;;;;;;;;;;;;;;;;;4934960;29;1788;-63
2023/05/14 07:20:18;;;;;;;;;;;;;;;;;;4934687;29;1860;-55
2023/05/14 07:22:46;;;;;;;;;;;;;;;;;;4934683;29;2189;-59
2023/05/14 07:25:13;;;;;;;;;;;;;;;;;;4934641;29;2013;-52
2023/05/14 07:27:42;;;;;;;;;;;;;;;;;;4934792;29;1930;-54
2023/05/14 07:30:09;;;;;;;;;;;;;;;;;;4934801;29;1967;-58
2023/05/14 07:32:37;;;;;;;;;;;;;;;;;;4934828;29;1773;-57
2023/05/14 07:35:05;;;;;;;;;;;;;;;;;;4934703;29;1950;-58
2023/05/14 07:37:33;;;;;;;;;;;;;;;;;;4934710;29;2100;-59
2023/05/14 07:40:00;;;;;;;;;;;;;;;;;;4933924;29;1931;-56
2023/05/14 07:42:27;;;;;;;;;;;;;;;;;;4934478;29;2261;-59
2023/05/14 07:45:02;;;;;;;;;;;;;;;;;;4934523;29;1819;-54
2023/05/14 07:47:32;;;;;;;;;;;;;;;;;;4934079;29;2373;-62
2023/05/14 07:50:00;;;;;;;;;;;;;;;;;;4934272;29;1977;-55
2023/05/14 07:52:27;;;;;;;;;;;;;;;;;;4934259;29;2009;-53
2023/05/14 07:54:54;;;;;;;;;;;;;;;;;;4934361;29;1963;-59
2023/05/14 07:57:21;;;;;;;;;;;;;;;;;;4934073;29;2033;-54
2023/05/14 07:59:48;;;;;;;;;;;;;;;;;;4934204;29;1978;-61
2023/05/14 08:02:16;;;;;;;;;;;;;;;;;;4934025;29;1911;-61
2023/05/14 08:04:45;;;;;;;;;;;;;;;;;;4933977;29;2088;-57
2023/05/14 08:07:12;;;;;;;;;;;;;;;;;;4934314;29;1928;-52
2023/05/14 08:09:39;;;;;;;;;;;;;;;;;;4934254;29;2151;-56
2023/05/14 08:12:07;;;;;;;;;;;;;;;;;;4934164;29;1980;-51
2023/05/14 08:14:34;;;;;;;;;;;;;;;;;;4934047;29;1927;-67
2023/05/14 08:17:02;;;;;;;;;;;;;;;;;;4933936;29;2129;-58
2023/05/14 08:19:29;;;;;;;;;;;;;;;;;;4933950;29;2416;-52
2023/05/14 08:21:56;;;;;;;;;;;;;;;;;;4933935;29;2038;-56
2023/05/14 08:24:23;;;;;;;;;;;;;;;;;;4933799;29;1983;-55
2023/05/14 08:26:51;;;;;;;;;;;;;;;;;;4934137;29;1772;-58
2023/05/14 08:29:18;;;;;;;;;;;;;;;;;;4933782;29;2199;-55
2023/05/14 08:31:45;;;;;;;;;;;;;;;;;;4933783;29;2035;-61
2023/05/14 08:34:12;;;;;;;;;;;;;;;;;;4934115;29;2143;-55
2023/05/14 08:36:39;;;;;;;;;;;;;;;;;;4933922;29;1895;-63
2023/05/14 08:39:07;;;;;;;;;;;;;;;;;;4933865;29;1790;-55
2023/05/14 08:41:34;;;;;;;;;;;;;;;;;;4933993;29;2074;-60
2023/05/14 08:44:17;;;;;;;;;;;;;;;;;;4937407;29;1568;-58
2023/05/14 08:46:45;;;;;;;;;;;;;;;;;;4937669;29;2042;-53
2023/05/14 08:49:30;;;;;;;;;;;;;;;;;;4937780;29;1956;-60
2023/05/14 08:51:59;;;;;;;;;;;;;;;;;;4937515;29;2087;-57
2023/05/14 08:54:27;;;;;;;;;;;;;;;;;;4937428;29;1774;-61
2023/05/14 08:56:54;;;;;;;;;;;;;;;;;;4937215;29;2288;-59
2023/05/14 08:59:21;;;;;;;;;;;;;;;;;;4937595;29;2175;-62
2023/05/14 09:01:51;;;;;;;;;;;;;;;;;;4937048;29;2093;-51
2023/05/14 09:04:22;;;;;;;;;;;;;;;;;;4937062;29;1923;-60
2023/05/14 09:06:50;;;;;;;;;;;;;;;;;;4937221;29;1902;-56
2023/05/14 09:09:17;;;;;;;;;;;;;;;;;;4937175;29;2065;-64
2023/05/14 09:11:45;;;;;;;;;;;;;;;;;;4937221;29;2049;-50
2023/05/14 09:14:12;;;;;;;;;;;;;;;;;;4937265;29;2112;-61
2023/05/14 09:16:41;;;;;;;;;;;;;;;;;;4937025;29;2124;-55
2023/05/14 09:19:09;;;;;;;;;;;;;;;;;;4937086;29;1506;-57
2023/05/14 09:21:36;;;;;;;;;;;;;;;;;;4936828;29;2079;-59
2023/05/14 09:24:04;;;;;;;;;;;;;;;;;;4937073;29;2007;-55
2023/05/14 09:26:32;;;;;;;;;;;;;;;;;;4936894;29;1947;-61
2023/05/14 09:29:00;;;;;;;;;;;;;;;;;;4937167;29;1906;-61
2023/05/14 09:31:32;;;;;;;;;;;;;;;;;;4936816;29;1973;-55
2023/05/14 09:33:59;;;;;;;;;;;;;;;;;;4936722;29;1912;-61
2023/05/14 09:36:26;;;;;;;;;;;;;;;;;;4936745;29;2087;-52
2023/05/14 09:38:56;;;;;;;;;;;;;;;;;;4936690;29;2325;-59
2023/05/14 09:41:24;;;;;;;;;;;;;;;;;;4936640;29;1840;-61
2023/05/14 09:43:51;;;;;;;;;;;;;;;;;;4936628;29;1980;-63
2023/05/14 09:46:18;;;;;;;;;;;;;;;;;;4936299;29;2222;-58
2023/05/14 09:48:46;;;;;;;;;;;;;;;;;;4936572;29;1810;-65
2023/05/14 09:51:13;;;;;;;;;;;;;;;;;;4936526;29;2108;-59
2023/05/14 09:53:43;;;;;;;;;;;;;;;;;;4935718;29;2130;-58
2023/05/14 09:56:10;;;;;;;;;;;;;;;;;;4935923;29;2061;-54
2023/05/14 09:58:37;;;;;;;;;;;;;;;;;;4936373;29;1958;-57
2023/05/14 10:01:04;;;;;;;;;;;;;;;;;;4934807;29;2549;-58
2023/05/14 10:03:32;;;;;;;;;;;;;;;;;;4936059;29;2032;-55
2023/05/14 10:06:03;;;;;;;;;;;;;;;;;;4936436;29;1981;-55
2023/05/14 10:08:32;;;;;;;;;;;;;;;;;;4934944;29;1952;-55
2023/05/14 10:11:01;;;;;;;;;;;;;;;;;;4935718;29;2082;-61
2023/05/14 10:13:35;;;;;;;;;;;;;;;;;;4936163;29;1868;-55
2023/05/14 10:16:17;;;;;;;;;;;;;;;;;;4935948;29;1935;-58
2023/05/14 10:18:47;;;;;;;;;;;;;;;;;;4936105;29;1917;-56
2023/05/14 10:21:15;;;;;;;;;;;;;;;;;;4935918;29;2110;-56
2023/05/14 10:23:43;;;;;;;;;;;;;;;;;;4935793;29;2154;-54
2023/05/14 10:26:10;;;;;;;;;;;;;;;;;;4935694;29;1874;-54
2023/05/14 10:28:38;;;;;;;;;;;;;;;;;;4935702;29;2447;-56
2023/05/14 10:31:07;;;;;;;;;;;;;;;;;;4935710;29;2072;-59
2023/05/14 10:33:49;;;;;;;;;;;;;;;;;;4935774;29;2000;-59
2023/05/14 10:36:17;;;;;;;;;;;;;;;;;;4935908;29;2120;-49
2023/05/14 10:38:45;;;;;;;;;;;;;;;;;;4935613;29;1989;-65
2023/05/14 10:41:16;;;;;;;;;;;;;;;;;;4934092;29;2421;-61
2023/05/14 10:43:44;;;;;;;;;;;;;;;;;;4935377;29;2126;-64
2023/05/14 10:46:12;;;;;;;;;;;;;;;;;;4935577;29;2071;-62
2023/05/14 10:48:43;;;;;;;;;;;;;;;;;;4935525;29;1959;-57
2023/05/14 10:51:11;;;;;;;;;;;;;;;;;;4935359;29;1857;-59
2023/05/14 10:53:39;;;;;;;;;;;;;;;;;;4935261;29;2026;-61
2023/05/14 10:56:08;;;;;;;;;;;;;;;;;;4935419;29;1798;-62
2023/05/14 10:58:36;;;;;;;;;;;;;;;;;;4935200;29;2079;-62
2023/05/14 11:01:05;;;;;;;;;;;;;;;;;;4934478;29;2089;-65
2023/05/14 11:03:37;;;;;;;;;;;;;;;;;;4935226;29;1970;-61
2023/05/14 11:06:05;;;;;;;;;;;;;;;;;;4934421;29;1946;-59
2023/05/14 11:08:32;;;;;;;;;;;;;;;;;;4934733;29;1976;-55
2023/05/14 11:10:59;;;;;;;;;;;;;;;;;;4934842;29;1992;-57
2023/05/14 11:13:26;;;;;;;;;;;;;;;;;;4934952;29;1979;-61
2023/05/14 11:15:54;;;;;;;;;;;;;;;;;;4934857;29;2128;-55
2023/05/14 11:18:27;;;;;;;;;;;;;;;;;;4934992;29;1935;-53
2023/05/14 11:21:01;;;;;;;;;;;;;;;;;;4934833;29;1864;-51
2023/05/14 11:23:28;;;;;;;;;;;;;;;;;;4934521;29;2056;-56
2023/05/14 11:25:56;;;;;;;;;;;;;;;;;;4934787;29;2125;-52
2023/05/14 11:28:23;;;;;;;;;;;;;;;;;;4935157;29;1962;-53
2023/05/14 11:30:51;;;;;;;;;;;;;;;;;;4934885;29;1886;-51
2023/05/14 11:33:19;;;;;;;;;;;;;;;;;;4934669;29;2089;-58
2023/05/14 11:35:47;;;;;;;;;;;;;;;;;;4934630;29;2083;-59
2023/05/14 11:38:18;;;;;;;;;;;;;;;;;;4934317;29;1943;-60
2023/05/14 11:40:55;;;;;;;;;;;;;;;;;;4934541;29;1911;-62
2023/05/14 11:43:23;;;;;;;;;;;;;;;;;;4934540;29;2009;-60
2023/05/14 11:45:53;;;;;;;;;;;;;;;;;;4934553;29;2046;-65
2023/05/14 11:48:21;;;;;;;;;;;;;;;;;;4934403;29;2121;-52
2023/05/14 11:50:49;;;;;;;;;;;;;;;;;;4934180;29;2156;-55
2023/05/14 11:53:18;;;;;;;;;;;;;;;;;;4934290;29;1928;-57
2023/05/14 11:55:46;;;;;;;;;;;;;;;;;;4934205;29;1844;-60
2023/05/14 11:58:14;;;;;;;;;;;;;;;;;;4934187;29;2036;-53
2023/05/14 12:00:43;;;;;;;;;;;;;;;;;;4934498;29;1943;-47
2023/05/14 12:03:10;;;;;;;;;;;;;;;;;;4934000;29;1995;-59
2023/05/14 12:05:38;;;;;;;;;;;;;;;;;;4934092;29;1997;-54
2023/05/14 12:08:22;;;;;;;;;;;;;;;;;;4934029;29;2001;-54
2023/05/14 12:10:49;;;;;;;;;;;;;;;;;;4934104;29;2099;-59
2023/05/14 12:13:17;;;;;;;;;;;;;;;;;;4933827;29;1845;-53
2023/05/14 12:15:45;;;;;;;;;;;;;;;;;;4934049;29;1967;-55
2023/05/14 12:18:13;;;;;;;;;;;;;;;;;;4933572;29;2177;-49
2023/05/14 12:20:53;;;;;;;;;;;;;;;;;;4933895;29;2017;-52
2023/05/14 12:23:27;;;;;;;;;;;;;;;;;;4933902;29;2045;-57
2023/05/14 12:25:54;;;;;;;;;;;;;;;;;;4934227;29;2170;-55
2023/05/14 12:28:22;;;;;;;;;;;;;;;;;;4933872;29;2048;-52
2023/05/14 12:30:54;;;;;;;;;;;;;;;;;;4933847;29;2069;-53
2023/05/14 12:33:22;;;;;;;;;;;;;;;;;;4932978;29;1878;-63
2023/05/14 12:35:49;;;;;;;;;;;;;;;;;;4933883;29;2001;-61
2023/05/14 12:38:16;;;;;;;;;;;;;;;;;;4933814;29;1978;-65
2023/05/14 12:40:44;;;;;;;;;;;;;;;;;;4933659;29;1965;-62
2023/05/14 12:43:11;;;;;;;;;;;;;;;;;;4933698;29;2063;-52
2023/05/14 12:45:38;;;;;;;;;;;;;;;;;;4933809;29;1980;-59
2023/05/14 12:48:05;;;;;;;;;;;;;;;;;;4933727;29;2046;-61
2023/05/14 12:50:32;;;;;;;;;;;;;;;;;;4933219;29;2064;-59
2023/05/14 12:53:00;;;;;;;;;;;;;;;;;;4933814;29;1928;-62
2023/05/14 12:55:27;;;;;;;;;;;;;;;;;;4934000;29;1983;-57
2023/05/14 12:57:54;;;;;;;;;;;;;;;;;;4933827;29;2029;-59
2023/05/14 13:00:21;;;;;;;;;;;;;;;;;;4933682;29;1882;-57
2023/05/14 13:02:49;;;;;;;;;;;;;;;;;;4933464;29;2034;-57
2023/05/14 13:05:16;;;;;;;;;;;;;;;;;;4933752;29;1897;-57
2023/05/14 13:07:45;;;;;;;;;;;;;;;;;;4933301;29;2083;-62
2023/05/14 13:10:12;;;;;;;;;;;;;;;;;;4933345;29;2143;-57
2023/05/14 13:12:39;;;;;;;;;;;;;;;;;;4933453;29;2090;-60
2023/05/14 13:15:07;;;;;;;;;;;;;;;;;;4933353;29;2264;-56
2023/05/14 13:17:35;;;;;;;;;;;;;;;;;;4933606;29;1921;-63
2023/05/14 13:20:03;;;;;;;;;;;;;;;;;;4933538;29;1933;-54
2023/05/14 13:22:30;;;;;;;;;;;;;;;;;;4933086;29;1992;-64
2023/05/14 13:24:58;;;;;;;;;;;;;;;;;;4933084;29;1907;-64
2023/05/14 13:27:25;;;;;;;;;;;;;;;;;;4932439;29;2024;-64
2023/05/14 13:29:52;;;;;;;;;;;;;;;;;;4935272;29;2220;-62
2023/05/14 13:32:19;;;;;;;;;;;;;;;;;;4936388;29;1905;-53
2023/05/14 13:34:46;;;;;;;;;;;;;;;;;;4929083;29;2149;-57
2023/05/14 13:37:14;;;;;;;;;;;;;;;;;;4917993;29;1990;-60
2023/05/14 13:39:42;;;;;;;;;;;;;;;;;;4917699;29;1991;-57
2023/05/14 13:42:09;;;;;;;;;;;;;;;;;;4927850;29;2085;-62
2023/05/14 13:44:36;;;;;;;;;;;;;;;;;;4936670;29;2026;-54
2023/05/14 13:47:04;;;;;;;;;;;;;;;;;;4936705;29;2009;-61
2023/05/14 13:49:31;;;;;;;;;;;;;;;;;;4936943;29;1746;-62
2023/05/14 13:51:58;;;;;;;;;;;;;;;;;;4936731;29;1943;-61
2023/05/14 13:54:25;;;;;;;;;;;;;;;;;;4936561;29;1873;-60
2023/05/14 13:56:52;;;;;;;;;;;;;;;;;;4936247;29;2063;-60
2023/05/14 13:59:20;;;;;;;;;;;;;;;;;;4936425;29;1911;-64
2023/05/14 14:01:48;;;;;;;;;;;;;;;;;;4936235;29;2071;-63
2023/05/14 14:04:16;;;;;;;;;;;;;;;;;;4936428;29;2114;-57
2023/05/14 14:06:45;;;;;;;;;;;;;;;;;;4936299;29;1873;-59
2023/05/14 14:09:13;;;;;;;;;;;;;;;;;;4936164;29;2058;-54
2023/05/14 14:11:42;;;;;;;;;;;;;;;;;;4935990;29;2154;-57
2023/05/14 14:14:09;;;;;;;;;;;;;;;;;;4936005;29;2041;-62
2023/05/14 14:16:36;;;;;;;;;;;;;;;;;;4934957;29;2174;-60
2023/05/14 14:19:04;;;;;;;;;;;;;;;;;;4936131;29;1836;-55
2023/05/14 14:21:31;;;;;;;;;;;;;;;;;;4936342;29;2027;-53
2023/05/14 14:23:59;;;;;;;;;;;;;;;;;;4935944;29;2123;-53
2023/05/14 14:26:29;;;;;;;;;;;;;;;;;;4936033;29;2089;-58
2023/05/14 14:28:56;;;;;;;;;;;;;;;;;;4935656;29;1944;-57
2023/05/14 14:31:23;;;;;;;;;;;;;;;;;;4935719;29;2125;-59
2023/05/14 14:33:50;;;;;;;;;;;;;;;;;;4935845;29;2098;-57
2023/05/14 14:36:18;;;;;;;;;;;;;;;;;;4935516;29;2004;-64
2023/05/14 14:38:46;;;;;;;;;;;;;;;;;;4935758;29;2030;-54
2023/05/14 14:41:13;;;;;;;;;;;;;;;;;;4934891;29;2148;-57
2023/05/14 14:43:40;;;;;;;;;;;;;;;;;;4935300;29;1901;-53
2023/05/14 14:46:08;;;;;;;;;;;;;;;;;;4935645;29;1933;-49
2023/05/14 14:48:40;;;;;;;;;;;;;;;;;;4934367;29;2087;-62
2023/05/14 14:51:07;;;;;;;;;;;;;;;;;;4935122;29;2018;-59
2023/05/14 14:53:34;;;;;;;;;;;;;;;;;;4935400;29;2019;-61
2023/05/14 14:56:02;;;;;;;;;;;;;;;;;;4935437;29;1947;-62
2023/05/14 14:58:29;;;;;;;;;;;;;;;;;;4935188;29;1938;-61
2023/05/14 15:00:57;;;;;;;;;;;;;;;;;;4935086;29;2162;-61
2023/05/14 15:03:24;;;;;;;;;;;;;;;;;;4935080;29;2040;-64
2023/05/14 15:05:52;;;;;;;;;;;;;;;;;;4935158;29;2150;-61
2023/05/14 15:08:23;;;;;;;;;;;;;;;;;;4935295;29;2191;-63
2023/05/14 15:10:50;;;;;;;;;;;;;;;;;;4934979;29;2068;-57
2023/05/14 15:13:18;;;;;;;;;;;;;;;;;;4934727;29;1973;-63
2023/05/14 15:15:45;;;;;;;;;;;;;;;;;;4935004;29;1917;-63
2023/05/14 15:18:12;;;;;;;;;;;;;;;;;;4934664;29;1927;-56
2023/05/14 15:20:39;;;;;;;;;;;;;;;;;;4934946;29;2063;-51
2023/05/14 15:23:06;;;;;;;;;;;;;;;;;;4934910;29;2203;-54
2023/05/14 15:25:34;;;;;;;;;;;;;;;;;;4935136;29;1959;-52
2023/05/14 15:28:01;;;;;;;;;;;;;;;;;;4933685;29;2291;-55
2023/05/14 15:30:29;;;;;;;;;;;;;;;;;;4934505;29;2255;-52
2023/05/14 15:32:56;;;;;;;;;;;;;;;;;;4935013;29;2073;-63
2023/05/14 15:35:23;;;;;;;;;;;;;;;;;;4934720;29;1926;-62
2023/05/14 15:37:54;;;;;;;;;;;;;;;;;;4934704;29;1987;-63
2023/05/14 15:40:21;;;;;;;;;;;;;;;;;;4934656;29;1842;-63
2023/05/14 15:42:48;;;;;;;;;;;;;;;;;;4934685;29;2009;-62
2023/05/14 15:45:16;;;;;;;;;;;;;;;;;;4934350;29;2016;-62
2023/05/14 15:47:43;;;;;;;;;;;;;;;;;;4934278;29;2147;-63
2023/05/14 15:50:11;;;;;;;;;;;;;;;;;;4934661;29;2164;-59
2023/05/14 15:52:38;;;;;;;;;;;;;;;;;;4933817;29;1957;-63
2023/05/14 15:55:06;;;;;;;;;;;;;;;;;;4934379;29;1938;-61
2023/05/14 15:57:33;;;;;;;;;;;;;;;;;;4934052;29;2019;-61
2023/05/14 16:00:02;;;;;;;;;;;;;;;;;;4933016;29;2053;-53
2023/05/14 16:02:31;;;;;;;;;;;;;;;;;;4934238;29;2033;-61
2023/05/14 16:04:59;;;;;;;;;;;;;;;;;;4934195;29;1981;-58
2023/05/14 16:07:26;;;;;;;;;;;;;;;;;;4934078;29;2070;-60
2023/05/14 16:09:53;;;;;;;;;;;;;;;;;;4934304;29;2183;-60
2023/05/14 16:12:20;;;;;;;;;;;;;;;;;;4933758;29;2107;-59
2023/05/14 16:14:47;;;;;;;;;;;;;;;;;;4934250;29;1971;-63
2023/05/14 16:17:15;;;;;;;;;;;;;;;;;;4934205;29;1927;-54
2023/05/14 16:19:42;;;;;;;;;;;;;;;;;;4933884;29;1840;-51
2023/05/14 16:22:09;;;;;;;;;;;;;;;;;;4934289;29;2039;-55
2023/05/14 16:24:36;;;;;;;;;;;;;;;;;;4933741;29;1978;-50
2023/05/14 16:27:03;;;;;;;;;;;;;;;;;;4934037;29;1832;-54
2023/05/14 16:29:31;;;;;;;;;;;;;;;;;;4934070;29;2030;-61
2023/05/14 16:31:58;;;;;;;;;;;;;;;;;;4932591;29;2259;-62
2023/05/14 16:34:27;;;;;;;;;;;;;;;;;;4934022;29;2013;-58
2023/05/14 16:36:54;;;;;;;;;;;;;;;;;;4933784;29;1674;-54
2023/05/14 16:39:22;;;;;;;;;;;;;;;;;;4933588;29;2052;-61
2023/05/14 16:41:49;;;;;;;;;;;;;;;;;;4933916;29;1948;-62
2023/05/14 16:44:16;;;;;;;;;;;;;;;;;;4933537;29;1953;-61
2023/05/14 16:46:43;;;;;;;;;;;;;;;;;;4934164;29;2094;-56
2023/05/14 16:49:11;;;;;;;;;;;;;;;;;;4934121;29;2084;-57
2023/05/14 16:51:41;;;;;;;;;;;;;;;;;;4933352;29;1859;-56
2023/05/14 16:54:09;;;;;;;;;;;;;;;;;;4934097;29;2084;-60
2023/05/14 16:56:36;;;;;;;;;;;;;;;;;;4932914;29;1895;-58
2023/05/14 16:59:05;;;;;;;;;;;;;;;;;;4933947;29;2086;-61
2023/05/14 17:01:34;;;;;;;;;;;;;;;;;;4933757;29;1883;-56
2023/05/14 17:04:02;;;;;;;;;;;;;;;;;;4935504;28;2086;-58
2023/05/14 17:06:29;;;;;;;;;;;;;;;;;;4937287;29;2077;-59
2023/05/14 17:08:57;;;;;;;;;;;;;;;;;;4937310;29;2149;-52